Time;durP1;ratioP1;P1;durP2;ratioP2;P2;SDS_P1;SDS_P2;PMS_P1;PMS_P2;Temp;Humidity;BMP_temperature;BMP_pressure;BME280_temperature;BME280_humidity;BME280_pressure;Samples;Min_cycle;Max_cycle;Signal;HPM_P1;HPM_P2
2023/10/30 00:00:37;;;;;;;6.93;1.83;;;;;;;;;;5007266;28;20121;-77
2023/10/30 00:03:03;;;;;;;4.55;1.85;;;;;;;;;;5013121;28;20030;-77
2023/10/30 00:05:28;;;;;;;12.80;2.28;;;;;;;;;;4987896;28;20050;-77
2023/10/30 00:07:55;;;;;;;8.77;1.58;;;;;;;;;;4971570;28;20038;-77
2023/10/30 00:10:23;;;;;;;7.43;1.73;;;;;;;;;;4995890;28;20034;-77
2023/10/30 00:12:49;;;;;;;4.72;1.20;;;;;;;;;;5009886;28;20034;-77
2023/10/30 00:15:14;;;;;;;7.93;1.80;;;;;;;;;;5015497;28;20052;-77
2023/10/30 00:17:39;;;;;;;5.40;1.63;;;;;;;;;;4990644;28;20036;-77
2023/10/30 00:20:06;;;;;;;6.43;1.90;;;;;;;;;;5006923;28;20645;-77
2023/10/30 00:22:31;;;;;;;5.93;1.90;;;;;;;;;;5006540;28;20026;-77
2023/10/30 00:24:56;;;;;;;7.32;2.15;;;;;;;;;;4988222;28;20084;-77
2023/10/30 00:27:22;;;;;;;9.63;2.28;;;;;;;;;;5005911;28;20042;-77
2023/10/30 00:29:47;;;;;;;8.43;1.85;;;;;;;;;;5006144;28;20026;-77
2023/10/30 00:32:13;;;;;;;6.78;1.50;;;;;;;;;;5005477;28;20537;-77
2023/10/30 00:34:39;;;;;;;12.27;2.58;;;;;;;;;;4987903;28;20033;-77
2023/10/30 00:37:04;;;;;;;6.85;2.70;;;;;;;;;;5005587;28;20639;-77
2023/10/30 00:39:31;;;;;;;4.38;2.03;;;;;;;;;;4987619;28;20034;-76
2023/10/30 00:41:58;;;;;;;8.35;2.35;;;;;;;;;;5006120;28;20017;-77
2023/10/30 00:44:23;;;;;;;10.60;2.10;;;;;;;;;;4988046;28;20052;-77
2023/10/30 00:46:51;;;;;;;7.57;2.10;;;;;;;;;;4994005;28;20805;-77
2023/10/30 00:49:17;;;;;;;9.95;2.00;;;;;;;;;;4985863;28;20042;-77
2023/10/30 00:51:42;;;;;;;11.80;2.75;;;;;;;;;;4984100;28;20038;-77
2023/10/30 00:54:07;;;;;;;7.53;1.70;;;;;;;;;;4986165;28;20029;-76
2023/10/30 00:56:33;;;;;;;9.18;1.95;;;;;;;;;;4985212;28;20034;-77
2023/10/30 00:58:58;;;;;;;7.80;2.20;;;;;;;;;;4998552;28;20069;-77
2023/10/30 01:01:25;;;;;;;7.65;2.03;;;;;;;;;;5005403;28;20040;-77
2023/10/30 01:03:50;;;;;;;11.52;2.28;;;;;;;;;;5005099;28;20029;-77
2023/10/30 01:06:15;;;;;;;10.88;1.75;;;;;;;;;;5003859;28;20034;-77
2023/10/30 01:08:41;;;;;;;7.35;1.83;;;;;;;;;;5005570;28;20034;-77
2023/10/30 01:11:06;;;;;;;4.72;1.83;;;;;;;;;;5003451;28;20412;-77
2023/10/30 01:13:32;;;;;;;9.38;2.00;;;;;;;;;;5004921;28;20045;-77
2023/10/30 01:15:58;;;;;;;8.18;1.83;;;;;;;;;;5005215;28;20117;-77
2023/10/30 01:18:23;;;;;;;5.82;1.40;;;;;;;;;;4987052;28;20054;-78
2023/10/30 01:20:49;;;;;;;11.00;1.75;;;;;;;;;;4983619;28;20030;-78
2023/10/30 01:23:16;;;;;;;11.60;1.92;;;;;;;;;;5004966;28;20041;-78
2023/10/30 01:25:41;;;;;;;4.10;1.38;;;;;;;;;;4986717;28;20025;-77
2023/10/30 01:28:06;;;;;;;10.07;2.08;;;;;;;;;;5006854;28;20034;-78
2023/10/30 01:30:33;;;;;;;7.57;1.65;;;;;;;;;;5014241;28;21450;-77
2023/10/30 01:32:58;;;;;;;6.53;1.42;;;;;;;;;;5018169;28;20108;-78
2023/10/30 01:35:24;;;;;;;9.82;2.03;;;;;;;;;;5006852;28;20240;-75
2023/10/30 01:37:49;;;;;;;2.88;1.20;;;;;;;;;;5004646;28;20642;-74
2023/10/30 01:40:14;;;;;;;10.07;1.50;;;;;;;;;;5004901;28;20037;-75
2023/10/30 01:42:40;;;;;;;9.63;1.52;;;;;;;;;;4986472;28;20044;-75
2023/10/30 01:45:06;;;;;;;5.45;1.50;;;;;;;;;;4987293;28;20627;-75
2023/10/30 01:47:31;;;;;;;5.03;1.38;;;;;;;;;;5002786;28;20559;-75
2023/10/30 01:49:58;;;;;;;6.05;1.13;;;;;;;;;;5004615;28;20034;-75
2023/10/30 01:52:26;;;;;;;8.60;1.38;;;;;;;;;;5002860;28;20037;-78
2023/10/30 01:54:52;;;;;;;8.35;1.75;;;;;;;;;;5004585;28;20030;-78
2023/10/30 01:57:20;;;;;;;5.10;1.38;;;;;;;;;;5003825;28;20037;-78
2023/10/30 01:59:46;;;;;;;11.02;1.77;;;;;;;;;;5004855;28;20509;-78
2023/10/30 02:02:11;;;;;;;11.00;1.95;;;;;;;;;;5004291;28;20037;-75
2023/10/30 02:04:37;;;;;;;8.32;1.50;;;;;;;;;;5003900;28;20552;-76
2023/10/30 02:07:03;;;;;;;6.20;1.50;;;;;;;;;;5003967;28;20042;-76
2023/10/30 02:09:30;;;;;;;6.32;1.33;;;;;;;;;;4985669;28;20029;-77
2023/10/30 02:11:57;;;;;;;4.68;1.27;;;;;;;;;;4986552;28;20021;-77
2023/10/30 02:14:23;;;;;;;4.57;1.38;;;;;;;;;;4986173;28;20053;-77
2023/10/30 02:16:49;;;;;;;8.40;1.92;;;;;;;;;;5003994;28;20026;-76
2023/10/30 02:19:21;;;;;;;5.75;1.60;;;;;;;;;;5004154;28;20037;-77
2023/10/30 02:21:47;;;;;;;5.43;1.33;;;;;;;;;;4969905;28;20598;-77
2023/10/30 02:24:13;;;;;;;10.88;1.40;;;;;;;;;;4986430;28;20501;-77
2023/10/30 02:26:39;;;;;;;8.40;1.58;;;;;;;;;;5004070;28;20068;-77
2023/10/30 02:29:05;;;;;;;5.72;1.73;;;;;;;;;;5004280;28;20042;-77
2023/10/30 02:31:32;;;;;;;6.82;1.48;;;;;;;;;;5004814;28;20042;-76
2023/10/30 02:34:02;;;;;;;6.75;1.42;;;;;;;;;;5003616;28;20034;-77
2023/10/30 02:36:28;;;;;;;8.68;1.80;;;;;;;;;;4985429;28;20030;-77
2023/10/30 02:38:53;;;;;;;6.88;1.40;;;;;;;;;;4984858;28;20125;-77
2023/10/30 02:41:19;;;;;;;5.40;1.45;;;;;;;;;;4985664;28;20038;-77
2023/10/30 02:43:44;;;;;;;9.18;1.70;;;;;;;;;;4987028;28;20045;-77
2023/10/30 02:46:10;;;;;;;7.07;1.10;;;;;;;;;;4978158;28;20042;-77
2023/10/30 02:48:35;;;;;;;6.03;1.40;;;;;;;;;;4996456;28;20468;-77
2023/10/30 02:51:01;;;;;;;7.35;1.30;;;;;;;;;;5000067;28;20485;-77
2023/10/30 02:53:26;;;;;;;6.22;1.40;;;;;;;;;;5000521;28;20101;-77
2023/10/30 02:55:51;;;;;;;7.88;1.58;;;;;;;;;;4987516;28;20576;-77
2023/10/30 02:58:17;;;;;;;7.65;1.42;;;;;;;;;;5001838;28;20110;-77
2023/10/30 03:00:42;;;;;;;5.65;0.90;;;;;;;;;;4984738;28;20514;-77
2023/10/30 03:03:09;;;;;;;4.88;1.48;;;;;;;;;;4985870;28;20413;-77
2023/10/30 03:05:34;;;;;;;7.57;1.17;;;;;;;;;;4986686;28;20038;-77
2023/10/30 03:08:01;;;;;;;7.18;1.30;;;;;;;;;;4987677;28;20101;-77
2023/10/30 03:10:26;;;;;;;8.88;1.23;;;;;;;;;;5005307;28;20042;-77
2023/10/30 03:12:51;;;;;;;5.75;1.30;;;;;;;;;;5007280;28;20049;-77
2023/10/30 03:15:17;;;;;;;7.72;1.40;;;;;;;;;;4989775;28;20108;-77
2023/10/30 03:17:42;;;;;;;9.60;1.50;;;;;;;;;;5007364;28;20049;-77
2023/10/30 03:20:08;;;;;;;6.53;1.20;;;;;;;;;;5007132;28;20046;-77
2023/10/30 03:22:34;;;;;;;9.25;1.50;;;;;;;;;;4989485;28;20037;-78
2023/10/30 03:25:00;;;;;;;5.47;1.45;;;;;;;;;;5006981;28;20595;-77
2023/10/30 03:27:25;;;;;;;5.55;1.20;;;;;;;;;;5007314;28;20038;-78
2023/10/30 03:29:50;;;;;;;5.32;1.30;;;;;;;;;;5007910;28;20026;-77
2023/10/30 03:32:16;;;;;;;4.70;1.08;;;;;;;;;;5006838;28;20068;-77
2023/10/30 03:34:41;;;;;;;6.78;1.40;;;;;;;;;;5005652;28;20042;-77
2023/10/30 03:37:08;;;;;;;5.53;1.42;;;;;;;;;;4987322;28;20037;-77
2023/10/30 03:39:33;;;;;;;2.53;0.85;;;;;;;;;;4988728;28;20041;-77
2023/10/30 03:41:59;;;;;;;7.57;1.35;;;;;;;;;;5007068;28;20038;-77
2023/10/30 03:44:26;;;;;;;9.57;1.60;;;;;;;;;;4989414;28;20044;-77
2023/10/30 03:46:54;;;;;;;3.45;1.27;;;;;;;;;;4988522;28;20040;-77
2023/10/30 03:49:20;;;;;;;11.63;1.95;;;;;;;;;;5006568;28;20050;-77
2023/10/30 03:51:46;;;;;;;6.63;1.92;;;;;;;;;;5006959;28;20045;-77
2023/10/30 03:54:12;;;;;;;5.13;1.10;;;;;;;;;;4989045;28;20064;-77
2023/10/30 03:56:37;;;;;;;9.25;1.55;;;;;;;;;;5006471;28;20038;-77
2023/10/30 03:59:02;;;;;;;15.20;1.70;;;;;;;;;;4972947;28;20101;-77
2023/10/30 04:01:28;;;;;;;7.00;1.25;;;;;;;;;;4969292;28;20061;-77
2023/10/30 04:03:53;;;;;;;8.70;1.27;;;;;;;;;;4987058;28;20096;-77
2023/10/30 04:06:18;;;;;;;5.30;1.95;;;;;;;;;;4987849;28;20080;-77
2023/10/30 04:08:44;;;;;;;7.78;1.60;;;;;;;;;;4992549;28;20045;-77
2023/10/30 04:11:11;;;;;;;6.70;1.52;;;;;;;;;;4981711;28;20045;-77
2023/10/30 04:13:37;;;;;;;13.73;1.80;;;;;;;;;;4989751;28;20046;-77
2023/10/30 04:16:03;;;;;;;13.32;1.50;;;;;;;;;;4987671;28;20100;-77
2023/10/30 04:18:28;;;;;;;4.90;1.23;;;;;;;;;;5000040;28;20030;-77
2023/10/30 04:20:53;;;;;;;2.90;1.25;;;;;;;;;;4987140;28;20500;-76
2023/10/30 04:23:19;;;;;;;8.52;1.50;;;;;;;;;;4984655;28;20066;-77
2023/10/30 04:25:44;;;;;;;6.50;1.50;;;;;;;;;;4986387;28;20130;-77
2023/10/30 04:28:09;;;;;;;5.45;1.30;;;;;;;;;;4986497;28;20053;-77
2023/10/30 04:30:35;;;;;;;9.02;1.40;;;;;;;;;;4986552;28;20097;-77
2023/10/30 04:33:01;;;;;;;4.60;1.10;;;;;;;;;;4987012;28;20054;-77
2023/10/30 04:35:26;;;;;;;6.53;1.08;;;;;;;;;;4986278;28;20069;-77
2023/10/30 04:37:52;;;;;;;10.60;1.27;;;;;;;;;;4955335;28;20126;-77
2023/10/30 04:40:17;;;;;;;7.95;1.05;;;;;;;;;;4975375;28;20046;-77
2023/10/30 04:42:43;;;;;;;7.30;1.15;;;;;;;;;;4985684;28;20509;-77
2023/10/30 04:45:08;;;;;;;4.07;1.02;;;;;;;;;;4986987;28;20405;-78
2023/10/30 04:47:34;;;;;;;10.23;1.48;;;;;;;;;;4968544;28;20461;-77
2023/10/30 04:49:59;;;;;;;9.38;1.70;;;;;;;;;;4985955;28;20042;-77
2023/10/30 04:52:25;;;;;;;4.22;1.55;;;;;;;;;;4985815;28;20058;-77
2023/10/30 04:54:51;;;;;;;11.88;1.55;;;;;;;;;;4969035;28;20073;-77
2023/10/30 04:57:16;;;;;;;5.45;1.10;;;;;;;;;;4986994;28;20767;-77
2023/10/30 04:59:41;;;;;;;6.10;1.38;;;;;;;;;;5005674;28;20077;-77
2023/10/30 05:02:07;;;;;;;5.25;0.98;;;;;;;;;;5003691;28;20045;-76
2023/10/30 05:04:33;;;;;;;8.52;1.40;;;;;;;;;;5004148;28;20053;-77
2023/10/30 05:06:59;;;;;;;7.57;1.33;;;;;;;;;;5004722;28;20066;-77
2023/10/30 05:09:24;;;;;;;4.75;1.38;;;;;;;;;;5005640;28;20293;-77
2023/10/30 05:11:49;;;;;;;4.93;1.75;;;;;;;;;;5005095;28;20479;-77
2023/10/30 05:14:15;;;;;;;5.88;1.35;;;;;;;;;;4987023;28;20045;-77
2023/10/30 05:16:40;;;;;;;5.18;1.35;;;;;;;;;;5005582;28;20092;-77
2023/10/30 05:19:06;;;;;;;6.78;1.45;;;;;;;;;;4987130;28;20069;-77
2023/10/30 05:21:31;;;;;;;7.97;1.60;;;;;;;;;;5004955;28;20497;-77
2023/10/30 05:23:56;;;;;;;3.53;1.13;;;;;;;;;;4988565;28;20037;-77
2023/10/30 05:26:22;;;;;;;5.07;1.30;;;;;;;;;;5005935;28;20096;-77
2023/10/30 05:28:47;;;;;;;9.00;1.30;;;;;;;;;;4994046;28;20062;-77
2023/10/30 05:31:12;;;;;;;5.15;1.08;;;;;;;;;;5020979;28;20110;-77
2023/10/30 05:33:38;;;;;;;3.92;1.25;;;;;;;;;;5017673;28;20038;-77
2023/10/30 05:36:04;;;;;;;4.00;1.55;;;;;;;;;;5007833;28;20050;-77
2023/10/30 05:38:29;;;;;;;7.88;1.65;;;;;;;;;;5005315;28;20034;-77
2023/10/30 05:40:55;;;;;;;6.43;1.40;;;;;;;;;;5004942;28;20054;-78
2023/10/30 05:43:20;;;;;;;4.68;1.27;;;;;;;;;;4987045;28;20088;-77
2023/10/30 05:45:47;;;;;;;7.82;2.17;;;;;;;;;;4986876;28;20061;-77
2023/10/30 05:48:12;;;;;;;9.63;1.20;;;;;;;;;;4987013;28;20038;-77
2023/10/30 05:50:38;;;;;;;4.70;1.10;;;;;;;;;;4986919;28;20052;-77
2023/10/30 05:53:03;;;;;;;10.77;1.70;;;;;;;;;;5004099;28;20051;-77
2023/10/30 05:55:28;;;;;;;6.80;1.50;;;;;;;;;;4986586;28;20524;-77
2023/10/30 05:57:54;;;;;;;3.92;1.10;;;;;;;;;;5003138;28;20054;-78
2023/10/30 06:00:19;;;;;;;7.82;2.10;;;;;;;;;;4997719;28;20040;-77
2023/10/30 06:02:45;;;;;;;3.55;1.20;;;;;;;;;;5021090;28;20040;-77
2023/10/30 06:05:12;;;;;;;5.72;1.30;;;;;;;;;;5005990;28;20475;-77
2023/10/30 06:07:37;;;;;;;7.15;1.25;;;;;;;;;;5023911;28;20049;-77
2023/10/30 06:10:04;;;;;;;2.85;1.05;;;;;;;;;;5005607;28;20084;-77
2023/10/30 06:12:30;;;;;;;5.53;1.70;;;;;;;;;;5001889;28;20103;-77
2023/10/30 06:14:55;;;;;;;5.18;1.30;;;;;;;;;;4986722;28;20076;-77
2023/10/30 06:17:20;;;;;;;10.13;1.60;;;;;;;;;;4986534;28;20041;-77
2023/10/30 06:19:46;;;;;;;9.10;1.98;;;;;;;;;;4986008;28;20046;-77
2023/10/30 06:22:11;;;;;;;2.75;1.25;;;;;;;;;;5004079;28;20042;-78
2023/10/30 06:24:37;;;;;;;5.18;1.50;;;;;;;;;;4985710;28;20034;-77
2023/10/30 06:27:02;;;;;;;5.78;1.65;;;;;;;;;;5004034;28;20036;-77
2023/10/30 06:29:27;;;;;;;5.28;1.40;;;;;;;;;;4983711;28;20213;-77
2023/10/30 06:31:53;;;;;;;9.77;1.40;;;;;;;;;;5001067;28;20034;-77
2023/10/30 06:34:18;;;;;;;5.43;1.17;;;;;;;;;;5003885;28;20046;-77
2023/10/30 06:36:46;;;;;;;4.65;1.10;;;;;;;;;;5003480;28;20034;-77
2023/10/30 06:39:13;;;;;;;7.30;1.27;;;;;;;;;;4985435;28;20034;-77
2023/10/30 06:41:38;;;;;;;4.32;1.60;;;;;;;;;;5003601;28;20088;-77
2023/10/30 06:44:04;;;;;;;5.07;1.23;;;;;;;;;;4994008;28;20088;-77
2023/10/30 06:46:29;;;;;;;6.85;1.77;;;;;;;;;;4989870;28;20945;-77
2023/10/30 06:48:55;;;;;;;8.25;1.60;;;;;;;;;;4989275;28;20828;-77
2023/10/30 06:51:20;;;;;;;11.07;2.03;;;;;;;;;;4986984;28;20555;-76
2023/10/30 06:53:45;;;;;;;6.30;1.30;;;;;;;;;;4997907;28;20057;-76
2023/10/30 06:56:11;;;;;;;4.43;1.42;;;;;;;;;;5001330;28;20037;-76
2023/10/30 06:58:36;;;;;;;5.38;1.10;;;;;;;;;;5000646;28;20042;-76
2023/10/30 07:01:03;;;;;;;11.73;1.77;;;;;;;;;;5002108;28;20068;-77
2023/10/30 07:03:29;;;;;;;10.68;1.30;;;;;;;;;;4999454;28;20405;-77
2023/10/30 07:05:54;;;;;;;5.82;1.52;;;;;;;;;;5001006;28;20037;-77
2023/10/30 07:08:19;;;;;;;6.57;1.48;;;;;;;;;;5003806;28;20060;-77
2023/10/30 07:10:45;;;;;;;4.88;1.58;;;;;;;;;;4985044;28;20398;-76
2023/10/30 07:13:10;;;;;;;6.38;1.48;;;;;;;;;;4995476;28;20047;-77
2023/10/30 07:15:35;;;;;;;5.00;1.67;;;;;;;;;;4969364;28;20037;-77
2023/10/30 07:18:01;;;;;;;10.05;1.67;;;;;;;;;;5003493;28;20040;-76
2023/10/30 07:20:26;;;;;;;8.82;1.38;;;;;;;;;;5001137;28;20077;-76
2023/10/30 07:22:52;;;;;;;7.55;1.70;;;;;;;;;;5001489;28;20069;-76
2023/10/30 07:25:17;;;;;;;4.20;1.50;;;;;;;;;;4984497;28;20137;-77
2023/10/30 07:27:42;;;;;;;5.95;1.40;;;;;;;;;;5002494;28;20111;-77
2023/10/30 07:30:08;;;;;;;4.55;1.48;;;;;;;;;;4993696;28;20030;-77
2023/10/30 07:32:34;;;;;;;8.93;1.52;;;;;;;;;;5002368;28;20145;-76
2023/10/30 07:35:00;;;;;;;11.95;1.88;;;;;;;;;;5000689;28;20038;-76
2023/10/30 07:37:25;;;;;;;3.03;1.30;;;;;;;;;;4994622;28;20143;-76
2023/10/30 07:39:50;;;;;;;3.75;1.40;;;;;;;;;;4995734;28;20045;-77
2023/10/30 07:42:16;;;;;;;6.38;1.52;;;;;;;;;;5002282;28;20044;-76
2023/10/30 07:44:41;;;;;;;5.68;1.30;;;;;;;;;;5002705;28;20394;-76
2023/10/30 07:47:07;;;;;;;10.68;1.63;;;;;;;;;;4998949;28;20054;-76
2023/10/30 07:49:32;;;;;;;3.83;1.58;;;;;;;;;;5003520;28;20686;-76
2023/10/30 07:51:57;;;;;;;5.18;1.35;;;;;;;;;;5005404;28;20046;-76
2023/10/30 07:54:23;;;;;;;4.72;1.50;;;;;;;;;;4988638;28;20501;-76
2023/10/30 07:56:49;;;;;;;5.35;1.70;;;;;;;;;;4993121;28;20089;-76
2023/10/30 07:59:14;;;;;;;9.10;1.80;;;;;;;;;;5000117;28;20093;-76
2023/10/30 08:01:40;;;;;;;4.03;1.50;;;;;;;;;;5005025;28;20073;-77
2023/10/30 08:04:06;;;;;;;7.88;1.48;;;;;;;;;;4988907;28;20050;-76
2023/10/30 08:06:32;;;;;;;8.93;1.92;;;;;;;;;;5009608;28;20087;-76
2023/10/30 08:08:57;;;;;;;11.38;2.15;;;;;;;;;;5015606;28;20125;-76
2023/10/30 08:11:23;;;;;;;4.85;1.50;;;;;;;;;;5021287;28;20061;-76
2023/10/30 08:13:48;;;;;;;5.70;1.48;;;;;;;;;;5013355;28;20118;-77
2023/10/30 08:16:13;;;;;;;1.88;1.25;;;;;;;;;;5007353;28;20038;-76
2023/10/30 08:18:39;;;;;;;5.18;1.50;;;;;;;;;;4988416;28;20467;-77
2023/10/30 08:21:05;;;;;;;2.92;1.25;;;;;;;;;;5006922;28;20102;-77
2023/10/30 08:23:30;;;;;;;4.00;1.20;;;;;;;;;;5005301;28;20034;-76
2023/10/30 08:25:56;;;;;;;6.82;1.60;;;;;;;;;;5002507;28;20045;-76
2023/10/30 08:28:22;;;;;;;4.72;1.90;;;;;;;;;;5004957;28;20184;-75
2023/10/30 08:30:47;;;;;;;6.75;1.60;;;;;;;;;;5005694;28;20038;-75
2023/10/30 08:33:12;;;;;;;3.15;1.55;;;;;;;;;;5005559;28;20034;-74
2023/10/30 08:35:38;;;;;;;4.38;1.35;;;;;;;;;;4987190;28;20070;-75
2023/10/30 08:38:03;;;;;;;4.90;1.48;;;;;;;;;;5002976;28;20056;-77
2023/10/30 08:40:29;;;;;;;4.07;1.70;;;;;;;;;;5001222;28;20069;-75
2023/10/30 08:42:54;;;;;;;1.98;1.27;;;;;;;;;;4993189;28;20046;-75
2023/10/30 08:45:21;;;;;;;4.10;1.48;;;;;;;;;;5000293;28;20034;-75
2023/10/30 08:47:46;;;;;;;5.65;1.23;;;;;;;;;;4981591;28;20402;-75
2023/10/30 08:50:12;;;;;;;6.28;1.70;;;;;;;;;;5001979;28;20544;-75
2023/10/30 08:52:38;;;;;;;3.83;1.52;;;;;;;;;;4993414;28;20066;-75
2023/10/30 08:55:04;;;;;;;2.30;1.40;;;;;;;;;;4978410;28;20034;-75
2023/10/30 08:57:30;;;;;;;3.17;1.60;;;;;;;;;;4975751;28;20593;-75
2023/10/30 08:59:55;;;;;;;5.07;1.60;;;;;;;;;;4982800;28;20030;-75
2023/10/30 09:02:20;;;;;;;5.30;1.70;;;;;;;;;;4978440;28;20092;-75
2023/10/30 09:04:46;;;;;;;6.25;1.92;;;;;;;;;;4982361;28;20189;-75
2023/10/30 09:07:11;;;;;;;2.60;1.60;;;;;;;;;;4973054;28;20458;-75
2023/10/30 09:09:37;;;;;;;6.88;2.00;;;;;;;;;;4978573;28;20042;-75
2023/10/30 09:12:02;;;;;;;5.40;1.80;;;;;;;;;;4980903;28;20130;-75
2023/10/30 09:14:28;;;;;;;3.35;1.88;;;;;;;;;;4972913;28;20050;-74
2023/10/30 09:16:53;;;;;;;5.20;1.85;;;;;;;;;;4984339;28;20209;-75
2023/10/30 09:19:19;;;;;;;6.13;2.05;;;;;;;;;;4982744;28;20054;-75
2023/10/30 09:21:44;;;;;;;5.18;2.63;;;;;;;;;;4985158;28;20425;-75
2023/10/30 09:24:09;;;;;;;4.63;2.42;;;;;;;;;;4986307;28;20081;-74
2023/10/30 09:26:34;;;;;;;3.28;2.15;;;;;;;;;;4986584;28;20064;-75
2023/10/30 09:29:00;;;;;;;3.20;1.92;;;;;;;;;;4987287;28;20046;-75
2023/10/30 09:31:30;;;;;;;3.05;1.80;;;;;;;;;;4993845;28;20062;-75
2023/10/30 09:33:56;;;;;;;4.03;1.75;;;;;;;;;;4984430;28;20042;-75
2023/10/30 09:36:21;;;;;;;1.83;1.17;;;;;;;;;;4983179;28;20037;-75
2023/10/30 09:38:47;;;;;;;5.15;1.83;;;;;;;;;;4984062;28;20024;-75
2023/10/30 09:41:14;;;;;;;4.32;1.65;;;;;;;;;;4984325;28;20046;-75
2023/10/30 09:43:40;;;;;;;3.90;1.65;;;;;;;;;;4999202;28;20122;-75
2023/10/30 09:46:06;;;;;;;4.43;1.50;;;;;;;;;;4983177;28;20054;-74
2023/10/30 09:48:32;;;;;;;2.80;1.20;;;;;;;;;;4974767;28;20037;-75
2023/10/30 09:50:58;;;;;;;2.05;1.23;;;;;;;;;;4983555;28;20042;-75
2023/10/30 09:53:25;;;;;;;1.45;1.00;;;;;;;;;;4981030;28;20163;-75
2023/10/30 09:55:53;;;;;;;2.15;1.05;;;;;;;;;;4979127;28;20069;-75
2023/10/30 09:58:22;;;;;;;4.28;1.25;;;;;;;;;;4976790;28;20552;-75
2023/10/30 10:00:47;;;;;;;2.58;1.13;;;;;;;;;;4981667;28;20521;-74
2023/10/30 10:03:13;;;;;;;6.55;1.33;;;;;;;;;;4983198;28;20037;-75
2023/10/30 10:05:38;;;;;;;3.63;1.20;;;;;;;;;;4972577;28;20837;-75
2023/10/30 10:08:05;;;;;;;3.47;1.30;;;;;;;;;;4981709;28;20047;-75
2023/10/30 10:10:56;;;;;;;4.47;1.35;;;;;;;;;;4982773;28;20042;-75
2023/10/30 10:13:23;;;;;;;5.38;2.22;;;;;;;;;;4983190;28;20058;-74
2023/10/30 10:15:50;;;;;;;4.15;1.83;;;;;;;;;;4984142;28;20781;-74
2023/10/30 10:18:27;;;;;;;3.58;1.50;;;;;;;;;;4982122;28;20034;-75
2023/10/30 10:21:03;;;;;;;2.20;1.33;;;;;;;;;;4983325;28;20034;-75
2023/10/30 10:23:33;;;;;;;3.83;1.40;;;;;;;;;;4983985;28;20073;-75
2023/10/30 10:26:13;;;;;;;2.78;0.73;;;;;;;;;;4982422;28;20054;-74
2023/10/30 10:28:38;;;;;;;3.88;1.13;;;;;;;;;;4973407;28;20047;-75
2023/10/30 10:31:04;;;;;;;4.03;1.00;;;;;;;;;;4963998;28;20049;-75
2023/10/30 10:33:32;;;;;;;6.13;2.25;;;;;;;;;;4963444;28;20387;-74
2023/10/30 10:36:03;;;;;;;7.45;1.92;;;;;;;;;;4965076;28;20121;-75
2023/10/30 10:38:29;;;;;;;5.25;1.83;;;;;;;;;;4964412;28;20417;-75
2023/10/30 10:40:55;;;;;;;4.88;1.60;;;;;;;;;;4971097;28;20042;-75
2023/10/30 10:43:23;;;;;;;4.70;1.23;;;;;;;;;;4978523;28;20039;-75
2023/10/30 10:45:51;;;;;;;3.53;1.33;;;;;;;;;;4978299;28;20053;-75
2023/10/30 10:48:18;;;;;;;3.55;1.20;;;;;;;;;;4997445;28;20034;-75
2023/10/30 10:50:44;;;;;;;5.00;1.30;;;;;;;;;;5000155;28;20416;-74
2023/10/30 10:53:10;;;;;;;4.97;1.20;;;;;;;;;;4988943;28;20031;-74
2023/10/30 10:55:42;;;;;;;1.83;1.02;;;;;;;;;;4986134;28;20592;-74
2023/10/30 10:58:10;;;;;;;3.90;1.55;;;;;;;;;;4983190;28;20058;-74
2023/10/30 11:00:56;;;;;;;2.38;1.27;;;;;;;;;;4984223;28;20034;-74
2023/10/30 11:03:22;;;;;;;6.57;1.80;;;;;;;;;;4983473;28;20031;-75
2023/10/30 11:05:50;;;;;;;9.80;4.15;;;;;;;;;;4984098;28;20034;-75
2023/10/30 11:08:31;;;;;;;6.43;3.33;;;;;;;;;;4983471;28;20042;-74
2023/10/30 11:11:17;;;;;;;5.88;1.67;;;;;;;;;;4983159;28;20133;-75
2023/10/30 11:14:11;;;;;;;3.92;0.70;;;;;;;;;;4981556;28;20045;-75
2023/10/30 11:16:43;;;;;;;;;;;;;;;;;;4983798;28;20125;-74
2023/10/30 11:19:09;;;;;;;1.50;0.70;;;;;;;;;;4982972;28;20435;-75
2023/10/30 11:21:35;;;;;;;0.70;0.50;;;;;;;;;;4982920;28;20113;-74
2023/10/30 11:24:00;;;;;;;1.90;0.60;;;;;;;;;;4971570;28;20036;-75
2023/10/30 11:26:29;;;;;;;4.40;0.70;;;;;;;;;;4980528;28;20174;-74
2023/10/30 11:28:54;;;;;;;2.08;0.50;;;;;;;;;;4966899;28;20141;-74
2023/10/30 11:31:19;;;;;;;3.05;0.80;;;;;;;;;;4966165;28;20514;-74
2023/10/30 11:33:45;;;;;;;2.28;1.05;;;;;;;;;;4965086;28;20133;-74
2023/10/30 11:36:17;;;;;;;3.38;1.35;;;;;;;;;;4967630;28;20560;-74
2023/10/30 11:38:51;;;;;;;2.78;1.00;;;;;;;;;;4982066;28;20043;-75
2023/10/30 11:41:17;;;;;;;3.90;1.20;;;;;;;;;;4985482;28;20041;-74
2023/10/30 11:43:42;;;;;;;4.75;1.20;;;;;;;;;;4981726;28;20042;-75
2023/10/30 11:46:08;;;;;;;3.65;1.27;;;;;;;;;;4981055;28;20047;-74
2023/10/30 11:48:37;;;;;;;3.22;0.90;;;;;;;;;;4967320;28;20150;-75
2023/10/30 11:51:03;;;;;;;2.50;0.98;;;;;;;;;;4967842;28;20406;-74
2023/10/30 11:53:28;;;;;;;2.40;1.00;;;;;;;;;;4967224;28;20051;-74
2023/10/30 11:55:54;;;;;;;6.22;0.90;;;;;;;;;;4966882;28;20043;-75
2023/10/30 11:58:20;;;;;;;2.83;1.00;;;;;;;;;;4977380;28;20139;-74
2023/10/30 12:00:47;;;;;;;3.17;1.27;;;;;;;;;;4986320;28;20115;-74
2023/10/30 12:03:13;;;;;;;5.55;1.10;;;;;;;;;;4986356;28;20029;-74
2023/10/30 12:05:39;;;;;;;3.95;1.15;;;;;;;;;;4992044;28;20053;-74
2023/10/30 12:08:04;;;;;;;1.58;0.82;;;;;;;;;;4996483;28;20081;-74
2023/10/30 12:10:30;;;;;;;2.65;1.00;;;;;;;;;;4985399;28;20074;-75
2023/10/30 12:12:56;;;;;;;2.65;0.90;;;;;;;;;;4982902;28;20537;-75
2023/10/30 12:15:21;;;;;;;4.63;1.20;;;;;;;;;;4982263;28;20030;-75
2023/10/30 12:17:47;;;;;;;3.28;1.20;;;;;;;;;;4986345;28;20552;-75
2023/10/30 12:20:12;;;;;;;2.60;1.20;;;;;;;;;;4986496;28;20593;-74
2023/10/30 12:22:41;;;;;;;1.20;0.95;;;;;;;;;;4985651;28;20038;-75
2023/10/30 12:25:08;;;;;;;3.45;1.10;;;;;;;;;;4971487;28;20053;-74
2023/10/30 12:27:34;;;;;;;1.75;1.17;;;;;;;;;;4966162;28;20089;-74
2023/10/30 12:30:09;;;;;;;3.92;1.30;;;;;;;;;;4969122;28;20505;-73
2023/10/30 12:32:34;;;;;;;2.30;1.08;;;;;;;;;;4982055;28;20034;-74
2023/10/30 12:35:16;;;;;;;2.42;0.98;;;;;;;;;;4984026;28;20056;-74
2023/10/30 12:37:41;;;;;;;2.40;1.15;;;;;;;;;;4980725;28;20043;-74
2023/10/30 12:40:09;;;;;;;5.22;1.10;;;;;;;;;;4985262;28;20113;-74
2023/10/30 12:42:45;;;;;;;1.85;0.80;;;;;;;;;;4984440;28;20045;-74
2023/10/30 12:45:15;;;;;;;1.95;1.05;;;;;;;;;;4998958;28;20030;-74
2023/10/30 12:47:43;;;;;;;1.50;1.00;;;;;;;;;;4984695;28;20043;-74
2023/10/30 12:50:09;;;;;;;2.75;1.50;;;;;;;;;;4982865;28;20061;-74
2023/10/30 12:52:36;;;;;;;2.67;1.42;;;;;;;;;;4984117;28;20045;-74
2023/10/30 12:55:02;;;;;;;2.65;1.80;;;;;;;;;;4982782;28;20045;-74
2023/10/30 12:57:27;;;;;;;4.53;2.85;;;;;;;;;;4981701;28;20027;-74
2023/10/30 12:59:53;;;;;;;5.38;2.47;;;;;;;;;;4984851;28;20029;-74
2023/10/30 13:02:19;;;;;;;2.67;1.60;;;;;;;;;;4985158;28;20587;-74
2023/10/30 13:04:45;;;;;;;3.75;1.52;;;;;;;;;;4984795;28;20144;-74
2023/10/30 13:07:10;;;;;;;3.25;1.58;;;;;;;;;;4984773;28;20117;-74
2023/10/30 13:09:35;;;;;;;4.35;1.80;;;;;;;;;;4985136;28;20521;-74
2023/10/30 13:12:01;;;;;;;6.28;2.20;;;;;;;;;;4983404;28;20129;-74
2023/10/30 13:14:26;;;;;;;2.72;1.88;;;;;;;;;;4985138;28;20058;-74
2023/10/30 13:16:53;;;;;;;5.95;3.78;;;;;;;;;;4985174;28;20053;-73
2023/10/30 13:19:19;;;;;;;5.28;3.13;;;;;;;;;;4985577;28;20124;-75
2023/10/30 13:21:44;;;;;;;5.40;2.97;;;;;;;;;;4984474;28;20077;-74
2023/10/30 13:24:09;;;;;;;5.75;2.47;;;;;;;;;;4987836;28;20533;-74
2023/10/30 13:26:35;;;;;;;6.65;3.20;;;;;;;;;;4994733;28;20034;-74
2023/10/30 13:29:00;;;;;;;10.18;4.72;;;;;;;;;;5001984;28;20034;-74
2023/10/30 13:31:26;;;;;;;10.50;5.57;;;;;;;;;;4994972;28;20039;-73
2023/10/30 13:33:51;;;;;;;7.53;3.80;;;;;;;;;;4987117;28;20045;-74
2023/10/30 13:36:17;;;;;;;6.90;4.15;;;;;;;;;;4985839;28;20561;-74
2023/10/30 13:38:43;;;;;;;6.05;3.67;;;;;;;;;;4985486;28;20026;-74
2023/10/30 13:41:09;;;;;;;7.38;3.28;;;;;;;;;;4976293;28;20038;-74
2023/10/30 13:43:34;;;;;;;5.05;2.53;;;;;;;;;;4968740;28;20104;-74
2023/10/30 13:46:00;;;;;;;4.65;2.50;;;;;;;;;;4978948;28;20038;-74
2023/10/30 13:48:25;;;;;;;5.32;3.47;;;;;;;;;;4980276;28;20019;-74
2023/10/30 13:50:51;;;;;;;5.32;3.28;;;;;;;;;;4975939;28;20410;-74
2023/10/30 13:53:17;;;;;;;5.57;3.00;;;;;;;;;;4980527;28;20057;-75
2023/10/30 13:55:42;;;;;;;5.50;3.22;;;;;;;;;;4974655;28;20057;-74
2023/10/30 13:58:08;;;;;;;7.28;3.25;;;;;;;;;;4976984;28;20183;-75
2023/10/30 14:00:33;;;;;;;5.68;3.33;;;;;;;;;;4975215;28;20058;-74
2023/10/30 14:03:02;;;;;;;5.80;3.15;;;;;;;;;;4979708;28;20066;-76
2023/10/30 14:05:28;;;;;;;5.78;3.35;;;;;;;;;;4977863;28;20080;-77
2023/10/30 14:07:54;;;;;;;13.35;5.72;;;;;;;;;;4977982;28;20034;-76
2023/10/30 14:10:20;;;;;;;6.72;4.03;;;;;;;;;;4977652;28;20041;-76
2023/10/30 14:12:45;;;;;;;8.13;4.53;;;;;;;;;;4975562;28;20035;-76
2023/10/30 14:15:10;;;;;;;6.20;4.03;;;;;;;;;;4977393;28;20018;-76
2023/10/30 14:17:36;;;;;;;6.00;3.65;;;;;;;;;;4976106;28;20469;-76
2023/10/30 14:20:02;;;;;;;7.30;3.08;;;;;;;;;;4980357;28;20038;-77
2023/10/30 14:22:27;;;;;;;5.25;3.13;;;;;;;;;;4978443;28;20051;-76
2023/10/30 14:24:53;;;;;;;4.07;2.70;;;;;;;;;;4976895;28;20030;-76
2023/10/30 14:27:18;;;;;;;5.00;2.67;;;;;;;;;;4977141;28;20034;-77
2023/10/30 14:29:43;;;;;;;4.85;2.58;;;;;;;;;;4968564;28;20146;-77
2023/10/30 14:32:09;;;;;;;4.80;2.50;;;;;;;;;;4979455;28;20054;-76
2023/10/30 14:34:35;;;;;;;4.38;2.50;;;;;;;;;;4977800;28;20034;-76
2023/10/30 14:37:04;;;;;;;4.00;2.75;;;;;;;;;;4977611;28;20093;-76